createdAt,value
2023-03-05T00:01:11.408Z,92888.81
2023-03-05T00:03:38.656Z,92883.22
2023-03-05T00:06:05.673Z,92885.22
2023-03-05T00:08:32.497Z,92888.97
2023-03-05T00:11:04.384Z,92881.78
2023-03-05T00:13:31.073Z,92887.13
2023-03-05T00:15:57.636Z,92882.75
2023-03-05T00:18:24.601Z,92882.91
2023-03-05T00:20:51.246Z,92883.91
2023-03-05T00:23:17.801Z,92875.56
2023-03-05T00:25:45.929Z,92877.53
2023-03-05T00:28:13.089Z,92876.94
2023-03-05T00:30:40.164Z,92882.28
2023-03-05T00:33:07.259Z,92876.88
2023-03-05T00:35:43.321Z,92872.09
2023-03-05T00:38:11.205Z,92874.50
2023-03-05T00:40:39.406Z,92875.47
2023-03-05T00:43:06.409Z,92869.72
2023-03-05T00:45:33.823Z,92867.91
2023-03-05T00:48:00.492Z,92864.72
2023-03-05T00:50:27.764Z,92859.53
2023-03-05T00:52:54.736Z,92861.72
2023-03-05T00:55:21.913Z,92859.94
2023-03-05T00:57:48.568Z,92859.88
2023-03-05T01:00:16.174Z,92854.94
2023-03-05T01:02:42.741Z,92858.84
2023-03-05T01:05:13.984Z,92857.03
2023-03-05T01:07:40.872Z,92845.94
2023-03-05T01:10:08.653Z,92850.75
2023-03-05T01:12:35.445Z,92851.94
2023-03-05T01:15:02.470Z,92843.97
2023-03-05T01:17:29.129Z,92842.56
2023-03-05T01:19:55.672Z,92844.31
2023-03-05T01:22:22.092Z,92838.00
2023-03-05T01:24:48.646Z,92842.38
2023-03-05T01:27:15.085Z,92836.59
2023-03-05T01:29:41.809Z,92840.16
2023-03-05T01:32:08.274Z,92836.59
2023-03-05T01:34:37.260Z,92832.44
2023-03-05T01:37:04.084Z,92828.09
2023-03-05T01:39:30.608Z,92826.91
2023-03-05T01:41:57.054Z,92817.91
2023-03-05T01:44:29.093Z,92813.34
2023-03-05T01:46:56.184Z,92810.97
2023-03-05T01:49:27.901Z,92808.75
2023-03-05T01:52:03.145Z,92808.91
2023-03-05T01:54:35.221Z,92804.97
2023-03-05T01:57:08.462Z,92797.03
2023-03-05T01:59:37.870Z,92800.03
2023-03-05T02:02:07.948Z,92795.00
2023-03-05T02:04:41.367Z,92789.50
2023-03-05T02:07:08.600Z,92793.03
2023-03-05T02:09:38.812Z,92787.84
2023-03-05T02:12:05.970Z,92782.91
2023-03-05T02:14:33.676Z,92775.97
2023-03-05T02:17:00.272Z,92775.59
2023-03-05T02:19:27.051Z,92776.75
2023-03-05T02:21:54.211Z,92778.53
2023-03-05T02:24:37.206Z,92774.00
2023-03-05T02:27:05.857Z,92776.94
2023-03-05T02:29:33.995Z,92763.09
2023-03-05T02:32:01.469Z,92762.13
2023-03-05T02:34:27.996Z,92763.09
2023-03-05T02:36:55.525Z,92760.09
2023-03-05T02:39:23.428Z,92761.72
2023-03-05T02:41:49.851Z,92758.00
2023-03-05T02:44:16.294Z,92752.06
2023-03-05T02:46:42.758Z,92753.06
2023-03-05T02:49:09.237Z,92743.13
2023-03-05T02:51:35.894Z,92748.28
2023-03-05T02:54:02.386Z,92739.97
2023-03-05T02:56:29.755Z,92738.41
2023-03-05T02:58:56.164Z,92741.56
2023-03-05T03:01:22.717Z,92740.78
2023-03-05T03:03:49.222Z,92743.13
2023-03-05T03:06:15.622Z,92730.66
2023-03-05T03:08:42.032Z,92731.59
2023-03-05T03:11:12.435Z,92729.22
2023-03-05T03:13:39.237Z,92734.41
2023-03-05T03:16:12.320Z,92723.09
2023-03-05T03:18:39.163Z,92725.28
2023-03-05T03:21:06.930Z,92729.28
2023-03-05T03:23:34.386Z,92728.06
2023-03-05T03:26:00.820Z,92732.03
2023-03-05T03:28:27.219Z,92733.59
2023-03-05T03:30:53.624Z,92727.88
2023-03-05T03:33:20.048Z,92724.47
2023-03-05T03:35:46.625Z,92724.91
2023-03-05T03:38:13.863Z,92723.34
2023-03-05T03:40:41.766Z,92720.97
2023-03-05T03:43:08.242Z,92711.03
2023-03-05T03:45:34.747Z,92709.44
2023-03-05T03:48:01.182Z,92710.63
2023-03-05T03:50:27.636Z,92710.44
2023-03-05T03:52:54.255Z,92706.88
2023-03-05T03:55:20.653Z,92708.47
2023-03-05T03:57:47.325Z,92704.31
2023-03-05T04:00:14.151Z,92705.28
2023-03-05T04:02:41.501Z,92703.31
2023-03-05T04:05:08.721Z,92699.91
2023-03-05T04:07:35.169Z,92704.06
2023-03-05T04:10:04.094Z,92691.56
2023-03-05T04:12:31.031Z,92689.19
2023-03-05T04:14:57.441Z,92696.94
2023-03-05T04:17:23.880Z,92691.75
2023-03-05T04:19:50.269Z,92691.19
2023-03-05T04:22:18.225Z,92686.03
2023-03-05T04:24:44.714Z,92691.22
2023-03-05T04:27:12.946Z,92678.69
2023-03-05T04:29:39.669Z,92676.13
2023-03-05T04:32:06.523Z,92681.09
2023-03-05T04:34:33.409Z,92675.94
2023-03-05T04:36:59.842Z,92677.72
2023-03-05T04:39:26.314Z,92673.53
2023-03-05T04:41:52.702Z,92670.16
2023-03-05T04:44:19.267Z,92670.16
2023-03-05T04:46:46.079Z,92674.94
2023-03-05T04:49:12.648Z,92659.25
2023-03-05T04:51:39.064Z,92668.19
2023-03-05T04:54:05.499Z,92667.38
2023-03-05T04:56:31.906Z,92670.97
2023-03-05T04:58:58.760Z,92660.44
2023-03-05T05:01:25.337Z,92664.22
2023-03-05T05:03:52.137Z,92655.88
2023-03-05T05:06:18.545Z,92651.50
2023-03-05T05:08:44.958Z,92659.47
2023-03-05T05:11:14.183Z,92659.88
2023-03-05T05:13:40.590Z,92654.72
2023-03-05T05:16:08.563Z,92649.53
2023-03-05T05:18:35.560Z,92649.31
2023-03-05T05:21:02.013Z,92645.34
2023-03-05T05:23:28.578Z,92648.75
2023-03-05T05:26:00.169Z,92650.13
2023-03-05T05:28:27.665Z,92640.78
2023-03-05T05:30:54.826Z,92643.56
2023-03-05T05:33:21.721Z,92638.00
2023-03-05T05:35:48.358Z,92643.56
2023-03-05T05:38:14.975Z,92646.94
2023-03-05T05:40:41.532Z,92635.63
2023-03-05T05:43:08.152Z,92635.22
2023-03-05T05:45:37.225Z,92639.19
2023-03-05T05:48:03.770Z,92637.19
2023-03-05T05:50:30.253Z,92641.00
2023-03-05T05:52:56.704Z,92634.84
2023-03-05T05:55:23.090Z,92630.84
2023-03-05T05:57:49.546Z,92635.22
2023-03-05T06:00:16.464Z,92631.25
2023-03-05T06:02:43.424Z,92632.84
2023-03-05T06:05:12.824Z,92635.63
2023-03-05T06:07:39.231Z,92635.03
2023-03-05T06:10:06.350Z,92633.03
2023-03-05T06:12:32.783Z,92638.41
2023-03-05T06:14:59.320Z,92634.44
2023-03-05T06:17:30.606Z,92636.41
2023-03-05T06:19:58.205Z,92641.19
2023-03-05T06:22:24.803Z,92634.44
2023-03-05T06:24:51.225Z,92640.38
2023-03-05T06:27:17.649Z,92643.34
2023-03-05T06:29:44.061Z,92640.78
2023-03-05T06:32:10.884Z,92639.00
2023-03-05T06:34:37.319Z,92635.78
2023-03-05T06:37:03.910Z,92633.81
2023-03-05T06:39:31.496Z,92634.41
2023-03-05T06:41:58.111Z,92638.38
2023-03-05T06:44:25.566Z,92645.72
2023-03-05T06:46:52.131Z,92639.38
2023-03-05T06:49:18.541Z,92637.78
2023-03-05T06:51:44.953Z,92638.53
2023-03-05T06:54:14.040Z,92632.38
2023-03-05T06:56:43.403Z,92630.78
2023-03-05T06:59:11.755Z,92625.22
2023-03-05T07:01:38.371Z,92625.44
2023-03-05T07:04:05.877Z,92613.47
2023-03-05T07:06:34.638Z,92612.25
2023-03-05T07:09:02.118Z,92609.50
2023-03-05T07:11:29.274Z,92615.63
2023-03-05T07:13:55.724Z,92612.84
2023-03-05T07:16:27.628Z,92614.00
2023-03-05T07:18:54.546Z,92618.59
2023-03-05T07:21:22.963Z,92608.22
2023-03-05T07:23:49.938Z,92615.56
2023-03-05T07:26:16.753Z,92606.81
2023-03-05T07:28:43.623Z,92604.81
2023-03-05T07:31:21.668Z,92615.72
2023-03-05T07:33:49.917Z,92608.78
2023-03-05T07:36:16.720Z,92614.72
2023-03-05T07:38:43.215Z,92615.50
2023-03-05T07:41:12.468Z,92608.72
2023-03-05T07:43:39.859Z,92615.66
2023-03-05T07:46:08.598Z,92616.88
2023-03-05T07:48:35.606Z,92613.25
2023-03-05T07:51:07.905Z,92619.84
2023-03-05T07:53:34.343Z,92615.88
2023-03-05T07:56:00.818Z,92619.06
2023-03-05T07:58:27.268Z,92609.66
2023-03-05T08:00:53.688Z,92605.03
2023-03-05T08:03:20.159Z,92606.59
2023-03-05T08:05:47.043Z,92599.84
2023-03-05T08:08:13.477Z,92587.44
2023-03-05T08:10:39.984Z,92596.78
2023-03-05T08:13:06.385Z,92593.63
2023-03-05T08:15:32.846Z,92588.97
2023-03-05T08:17:59.782Z,92596.91
2023-03-05T08:20:26.640Z,92592.09
2023-03-05T08:22:53.046Z,92595.84
2023-03-05T08:25:19.517Z,92591.25
2023-03-05T08:27:47.099Z,92588.28
2023-03-05T08:30:21.602Z,92595.63
2023-03-05T08:32:51.947Z,92590.59
2023-03-05T08:35:18.462Z,92584.78
2023-03-05T08:37:44.889Z,92584.75
2023-03-05T08:40:11.948Z,92581.50
2023-03-05T08:42:38.352Z,92581.09
2023-03-05T08:45:05.120Z,92580.81
2023-03-05T08:47:31.505Z,92576.59
2023-03-05T08:49:58.421Z,92575.88
2023-03-05T08:52:25.097Z,92574.28
2023-03-05T08:54:51.570Z,92579.19
2023-03-05T08:57:18.136Z,92581.63
2023-03-05T08:59:44.558Z,92576.75
2023-03-05T09:02:13.221Z,92577.84
2023-03-05T09:04:40.259Z,92564.81
2023-03-05T09:07:07.141Z,92569.34
2023-03-05T09:09:33.997Z,92574.81
2023-03-05T09:12:01.626Z,92571.28
2023-03-05T09:14:28.747Z,92567.38
2023-03-05T09:16:56.358Z,92571.25
2023-03-05T09:19:23.088Z,92565.19
2023-03-05T09:21:50.045Z,92562.16
2023-03-05T09:24:16.502Z,92563.88
2023-03-05T09:26:42.970Z,92563.44
2023-03-05T09:29:09.778Z,92563.78
2023-03-05T09:31:36.896Z,92561.84
2023-03-05T09:34:04.891Z,92557.50
2023-03-05T09:36:32.595Z,92553.75
2023-03-05T09:38:59.279Z,92553.88
2023-03-05T09:41:50.383Z,92559.19
2023-03-05T09:44:43.308Z,92554.44
2023-03-05T09:47:43.448Z,92552.44
2023-03-05T09:50:22.072Z,92551.56
2023-03-05T09:52:55.405Z,92544.44
2023-03-05T09:55:40.882Z,92547.25
2023-03-05T09:58:22.752Z,92538.81
2023-03-05T10:00:53.271Z,92537.91
2023-03-05T10:03:28.149Z,92536.91
2023-03-05T10:06:07.011Z,92540.75
2023-03-05T10:08:46.748Z,92541.44
2023-03-05T10:11:29.464Z,92536.81
2023-03-05T10:13:55.892Z,92540.09
2023-03-05T10:17:01.050Z,92529.38
2023-03-05T10:19:49.392Z,92538.31
2023-03-05T10:22:20.499Z,92538.44
2023-03-05T10:25:20.357Z,92529.25
2023-03-05T10:27:54.081Z,92521.34
2023-03-05T10:30:33.482Z,92517.28
2023-03-05T10:33:21.555Z,92516.72
2023-03-05T10:36:22.438Z,92513.47
2023-03-05T10:39:08.786Z,92510.19
2023-03-05T10:41:56.224Z,92504.41
2023-03-05T10:44:37.740Z,92505.19
2023-03-05T10:47:16.443Z,92499.78
2023-03-05T10:49:50.928Z,92503.72
2023-03-05T10:52:39.601Z,92505.31
2023-03-05T10:55:17.607Z,92499.34
2023-03-05T10:57:44.751Z,92490.81
2023-03-05T11:00:17.715Z,92490.25
2023-03-05T11:02:58.222Z,92486.88
2023-03-05T11:05:42.653Z,92489.94
2023-03-05T11:08:30.547Z,92483.38
2023-03-05T11:11:11.968Z,92479.78
2023-03-05T11:13:52.351Z,92481.00
2023-03-05T11:16:26.499Z,92475.03
2023-03-05T11:19:14.745Z,92470.28
2023-03-05T11:21:43.090Z,92471.19
2023-03-05T11:24:18.714Z,92474.91
2023-03-05T11:26:57.237Z,92471.19
2023-03-05T11:29:26.969Z,92466.25
2023-03-05T11:31:53.966Z,92463.50
2023-03-05T11:34:20.327Z,92460.13
2023-03-05T11:36:56.276Z,92460.00
2023-03-05T11:39:25.218Z,92460.44
2023-03-05T11:42:09.501Z,92462.81
2023-03-05T11:44:45.174Z,92453.22
2023-03-05T11:47:37.322Z,92453.00
2023-03-05T11:50:15.778Z,92447.41
2023-03-05T11:52:47.955Z,92442.56
2023-03-05T11:55:19.795Z,92436.34
2023-03-05T11:57:58.204Z,92433.41
2023-03-05T12:00:29.041Z,92431.91
2023-03-05T12:02:58.421Z,92425.69
2023-03-05T12:05:25.215Z,92425.69
2023-03-05T12:07:55.273Z,92414.09
2023-03-05T12:10:24.671Z,92414.50
2023-03-05T12:13:20.153Z,92416.97
2023-03-05T12:15:54.708Z,92406.97
2023-03-05T12:18:33.710Z,92411.53
2023-03-05T12:21:06.497Z,92405.25
2023-03-05T12:23:52.694Z,92407.31
2023-03-05T12:26:59.287Z,92401.09
2023-03-05T12:29:39.012Z,92408.06
2023-03-05T12:32:33.946Z,92391.06
2023-03-05T12:35:22.772Z,92386.28
2023-03-05T12:37:49.130Z,92386.59
2023-03-05T12:40:15.536Z,92377.63
2023-03-05T12:42:41.878Z,92374.16
2023-03-05T12:45:17.300Z,92365.16
2023-03-05T12:47:56.513Z,92378.50
2023-03-05T12:50:29.015Z,92369.13
2023-03-05T12:53:04.385Z,92365.97
2023-03-05T12:55:39.855Z,92355.47
2023-03-05T12:58:14.980Z,92350.03
2023-03-05T13:00:52.336Z,92347.59
2023-03-05T13:03:30.603Z,92351.44
2023-03-05T13:06:00.405Z,92345.00
2023-03-05T13:08:38.053Z,92343.13
2023-03-05T13:11:21.243Z,92344.22
2023-03-05T13:13:48.545Z,92341.59
2023-03-05T13:16:19.852Z,92347.84
2023-03-05T13:18:48.626Z,92345.34
2023-03-05T13:21:20.409Z,92346.91
2023-03-05T13:23:58.372Z,92341.81
2023-03-05T13:26:29.989Z,92331.41
2023-03-05T13:29:22.229Z,92342.25
2023-03-05T13:31:54.670Z,92335.81
2023-03-05T13:34:26.603Z,92325.28
2023-03-05T13:37:00.781Z,92331.78
2023-03-05T13:39:34.189Z,92321.41
2023-03-05T13:42:03.999Z,92315.25
2023-03-05T13:44:31.819Z,92304.22
2023-03-05T13:47:17.123Z,92307.88
2023-03-05T13:49:44.262Z,92297.72
2023-03-05T13:52:11.632Z,92304.72
2023-03-05T13:54:38.329Z,92298.97
2023-03-05T13:57:08.352Z,92291.25
2023-03-05T13:59:38.906Z,92291.16
2023-03-05T14:02:18.238Z,92293.19
2023-03-05T14:04:46.270Z,92289.75
2023-03-05T14:07:33.375Z,92289.72
2023-03-05T14:10:00.717Z,92284.78
2023-03-05T14:12:38.338Z,92282.31
2023-03-05T14:15:21.339Z,92284.78
2023-03-05T14:17:48.173Z,92286.09
2023-03-05T14:20:23.248Z,92285.06
2023-03-05T14:22:53.360Z,92281.59
2023-03-05T14:25:34.033Z,92284.94
2023-03-05T14:28:06.458Z,92275.47
2023-03-05T14:30:35.949Z,92283.09
2023-03-05T14:33:03.655Z,92275.53
2023-03-05T14:35:30.622Z,92277.47
2023-03-05T14:37:59.697Z,92273.97
2023-03-05T14:40:35.214Z,92271.03
2023-03-05T14:43:06.503Z,92269.22
2023-03-05T14:45:36.618Z,92265.69
2023-03-05T14:48:05.094Z,92266.78
2023-03-05T14:50:37.592Z,92268.25
2023-03-05T14:53:09.408Z,92270.25
2023-03-05T14:55:38.162Z,92269.81
2023-03-05T14:58:12.215Z,92259.09
2023-03-05T15:00:38.639Z,92266.53
2023-03-05T15:03:05.306Z,92255.84
2023-03-05T15:05:32.285Z,92250.22
2023-03-05T15:07:59.222Z,92246.16
2023-03-05T15:10:26.194Z,92248.59
2023-03-05T15:12:53.410Z,92239.69
2023-03-05T15:15:20.914Z,92235.97
2023-03-05T15:17:51.531Z,92236.16
2023-03-05T15:20:21.453Z,92231.09
2023-03-05T15:22:48.039Z,92229.19
2023-03-05T15:25:14.771Z,92228.19
2023-03-05T15:27:41.282Z,92226.59
2023-03-05T15:30:09.527Z,92225.84
2023-03-05T15:32:36.013Z,92225.16
2023-03-05T15:35:02.478Z,92222.56
2023-03-05T15:37:28.930Z,92223.38
2023-03-05T15:39:55.362Z,92216.16
2023-03-05T15:42:21.763Z,92215.69
2023-03-05T15:44:48.233Z,92210.16
2023-03-05T15:47:14.731Z,92209.72
2023-03-05T15:49:41.172Z,92202.28
2023-03-05T15:52:07.600Z,92203.38
2023-03-05T15:54:35.615Z,92201.25
2023-03-05T15:57:02.009Z,92194.28
2023-03-05T15:59:28.410Z,92191.22
2023-03-05T16:01:54.895Z,92195.41
2023-03-05T16:04:21.369Z,92187.63
2023-03-05T16:06:49.409Z,92189.19
2023-03-05T16:09:17.704Z,92191.78
2023-03-05T16:11:47.853Z,92180.94
2023-03-05T16:14:17.400Z,92187.50
2023-03-05T16:16:44.013Z,92175.56
2023-03-05T16:19:15.859Z,92179.94
2023-03-05T16:21:42.506Z,92177.25
2023-03-05T16:24:09.015Z,92179.75
2023-03-05T16:26:39.824Z,92169.03
2023-03-05T16:29:06.626Z,92174.09
2023-03-05T16:31:35.373Z,92172.09
2023-03-05T16:34:02.073Z,92170.50
2023-03-05T16:36:30.888Z,92169.81
2023-03-05T16:38:59.242Z,92160.69
2023-03-05T16:41:26.607Z,92165.44
2023-03-05T16:43:56.239Z,92165.88
2023-03-05T16:46:27.945Z,92165.19
2023-03-05T16:48:54.572Z,92153.72
2023-03-05T16:51:21.846Z,92161.81
2023-03-05T16:53:48.337Z,92157.44
2023-03-05T16:56:15.001Z,92151.00
2023-03-05T16:58:41.455Z,92152.44
2023-03-05T17:01:13.979Z,92144.91
2023-03-05T17:03:41.555Z,92158.66
2023-03-05T17:06:13.450Z,92149.31
2023-03-05T17:08:41.432Z,92145.28
2023-03-05T17:11:08.040Z,92140.75
2023-03-05T17:13:34.782Z,92152.81
2023-03-05T17:16:01.839Z,92148.41
2023-03-05T17:18:28.344Z,92151.78
2023-03-05T17:20:54.884Z,92145.13
2023-03-05T17:23:21.334Z,92145.59
2023-03-05T17:25:47.824Z,92144.00
2023-03-05T17:28:14.703Z,92147.16
2023-03-05T17:30:41.254Z,92148.63
2023-03-05T17:33:07.882Z,92143.34
2023-03-05T17:35:35.300Z,92142.53
2023-03-05T17:38:07.681Z,92140.63
2023-03-05T17:40:34.333Z,92138.03
2023-03-05T17:43:00.850Z,92142.19
2023-03-05T17:45:27.374Z,92139.59
2023-03-05T17:47:53.988Z,92141.75
2023-03-05T17:50:20.700Z,92136.34
2023-03-05T17:52:47.561Z,92135.09
2023-03-05T17:55:15.757Z,92131.03
2023-03-05T17:57:44.267Z,92131.13
2023-03-05T18:00:17.745Z,92134.28
2023-03-05T18:02:44.645Z,92137.06
2023-03-05T18:05:12.198Z,92135.84
2023-03-05T18:07:38.905Z,92131.13
2023-03-05T18:10:07.488Z,92132.38
2023-03-05T18:12:34.069Z,92133.94
2023-03-05T18:15:00.457Z,92131.91
2023-03-05T18:17:26.860Z,92134.50
2023-03-05T18:19:53.572Z,92131.91
2023-03-05T18:22:19.998Z,92125.84
2023-03-05T18:24:46.423Z,92128.56
2023-03-05T18:27:13.046Z,92127.19
2023-03-05T18:29:39.547Z,92124.59
2023-03-05T18:32:06.090Z,92132.94
2023-03-05T18:34:32.506Z,92126.53
2023-03-05T18:37:00.681Z,92122.72
2023-03-05T18:39:33.266Z,92127.44
2023-03-05T18:42:00.164Z,92127.66
2023-03-05T18:44:26.862Z,92119.41
2023-03-05T18:46:53.866Z,92124.16
2023-03-05T18:49:20.485Z,92120.69
2023-03-05T18:51:47.012Z,92119.44
2023-03-05T18:54:13.408Z,92121.13
2023-03-05T18:56:39.862Z,92118.31
2023-03-05T18:59:06.320Z,92117.75
2023-03-05T19:01:32.898Z,92118.97
2023-03-05T19:03:59.376Z,92117.19
2023-03-05T19:06:26.043Z,92116.97
2023-03-05T19:08:57.231Z,92116.38
2023-03-05T19:11:23.771Z,92116.38
2023-03-05T19:13:51.591Z,92111.00
2023-03-05T19:16:29.197Z,92112.22
2023-03-05T19:19:05.135Z,92108.75
2023-03-05T19:21:32.162Z,92101.97
2023-03-05T19:23:58.608Z,92101.97
2023-03-05T19:26:25.044Z,92094.88
2023-03-05T19:28:51.476Z,92090.16
2023-03-05T19:31:17.985Z,92092.75
2023-03-05T19:33:44.398Z,92079.09
2023-03-05T19:36:12.650Z,92087.31
2023-03-05T19:38:40.055Z,92081.69
2023-03-05T19:41:10.520Z,92082.81
2023-03-05T19:43:37.635Z,92091.72
2023-03-05T19:46:07.150Z,92081.38
2023-03-05T19:48:34.905Z,92075.38
2023-03-05T19:51:03.061Z,92081.56
2023-03-05T19:53:29.790Z,92077.50
2023-03-05T19:55:56.651Z,92077.06
2023-03-05T19:58:23.045Z,92080.66
2023-03-05T20:00:49.483Z,92072.69
2023-03-05T20:03:15.898Z,92078.63
2023-03-05T20:05:43.715Z,92069.72
2023-03-05T20:08:10.321Z,92069.94
2023-03-05T20:10:36.776Z,92071.19
2023-03-05T20:13:03.193Z,92068.38
2023-03-05T20:15:29.764Z,92066.59
2023-03-05T20:17:57.574Z,92066.00
2023-03-05T20:20:24.741Z,92059.81
2023-03-05T20:22:51.178Z,92067.13
2023-03-05T20:25:21.086Z,92066.22
2023-03-05T20:27:47.497Z,92068.38
2023-03-05T20:30:15.505Z,92061.41
2023-03-05T20:32:42.088Z,92061.41
2023-03-05T20:35:13.783Z,92065.34
2023-03-05T20:37:49.113Z,92061.31
2023-03-05T20:40:16.673Z,92057.16
2023-03-05T20:42:43.365Z,92056.13
2023-03-05T20:45:10.222Z,92056.69
2023-03-05T20:47:45.847Z,92056.03
2023-03-05T20:50:14.366Z,92055.44
2023-03-05T20:52:41.085Z,92055.44
2023-03-05T20:55:08.370Z,92055.31
2023-03-05T20:57:34.834Z,92054.31
2023-03-05T21:00:03.355Z,92059.47
2023-03-05T21:02:30.405Z,92054.41
2023-03-05T21:04:56.854Z,92044.72
2023-03-05T21:07:23.282Z,92045.84
2023-03-05T21:09:49.702Z,92049.22
2023-03-05T21:12:16.193Z,92046.31
2023-03-05T21:14:42.594Z,92029.09
2023-03-05T21:17:09.391Z,92044.84
2023-03-05T21:19:38.223Z,92036.63
2023-03-05T21:22:04.820Z,92036.84
2023-03-05T21:24:42.473Z,92036.53
2023-03-05T21:27:09.060Z,92032.13
2023-03-05T21:29:35.451Z,92029.44
2023-03-05T21:32:02.422Z,92026.28
2023-03-05T21:34:28.924Z,92016.59
2023-03-05T21:36:55.325Z,92020.53
2023-03-05T21:39:21.711Z,92021.44
2023-03-05T21:41:48.269Z,92014.00
2023-03-05T21:44:17.520Z,92007.59
2023-03-05T21:46:43.947Z,92003.44
2023-03-05T21:49:10.387Z,92004.56
2023-03-05T21:51:48.785Z,91998.38
2023-03-05T21:54:15.222Z,91992.66
2023-03-05T21:56:41.630Z,91991.88
2023-03-05T21:59:08.014Z,91991.19
2023-03-05T22:01:34.561Z,91990.16
2023-03-05T22:04:01.005Z,91987.13
2023-03-05T22:06:27.514Z,91983.75
2023-03-05T22:08:53.906Z,91984.53
2023-03-05T22:11:21.075Z,91977.78
2023-03-05T22:13:47.741Z,91979.81
2023-03-05T22:16:25.675Z,91973.50
2023-03-05T22:18:53.207Z,91978.25
2023-03-05T22:21:27.656Z,91974.63
2023-03-05T22:23:56.994Z,91972.28
2023-03-05T22:26:25.232Z,91970.47
2023-03-05T22:28:51.779Z,91968.91
2023-03-05T22:31:26.549Z,91960.47
2023-03-05T22:33:53.672Z,91965.53
2023-03-05T22:36:20.626Z,91964.28
2023-03-05T22:38:47.147Z,91962.16
2023-03-05T22:41:16.604Z,91962.41
2023-03-05T22:43:43.020Z,91954.38
2023-03-05T22:46:10.473Z,91950.13
2023-03-05T22:48:36.974Z,91951.13
2023-03-05T22:51:03.391Z,91944.16
2023-03-05T22:53:30.221Z,91932.56
2023-03-05T22:55:56.652Z,91928.97
2023-03-05T22:58:23.206Z,91932.56
2023-03-05T23:00:49.628Z,91931.75
2023-03-05T23:03:16.245Z,91931.75
2023-03-05T23:05:42.698Z,91928.41
2023-03-05T23:08:09.224Z,91926.72
2023-03-05T23:10:35.812Z,91919.38
2023-03-05T23:13:02.536Z,91926.28
2023-03-05T23:15:32.058Z,91917.72
2023-03-05T23:17:59.062Z,91918.28
2023-03-05T23:20:29.181Z,91913.09
2023-03-05T23:22:56.139Z,91910.50
2023-03-05T23:25:24.967Z,91899.16
2023-03-05T23:27:51.583Z,91899.81
2023-03-05T23:30:26.629Z,91895.91
2023-03-05T23:32:54.378Z,91894.31
2023-03-05T23:35:25.062Z,91896.91
2023-03-05T23:37:52.870Z,91890.38
2023-03-05T23:40:25.158Z,91891.19
2023-03-05T23:42:52.491Z,91889.59
2023-03-05T23:45:21.088Z,91885.66
2023-03-05T23:47:48.738Z,91883.06
2023-03-05T23:50:20.953Z,91877.22
2023-03-05T23:52:48.914Z,91880.38
2023-03-05T23:55:19.378Z,91874.41
2023-03-05T23:57:46.957Z,91874.19
